createdAt,value
2022-12-28T00:01:16.560Z,4.88
2022-12-28T00:03:43.158Z,4.89
2022-12-28T00:06:10.370Z,4.89
2022-12-28T00:08:37.063Z,4.89
2022-12-28T00:11:12.253Z,4.89
2022-12-28T00:13:45.507Z,4.87
2022-12-28T00:16:21.059Z,4.90
2022-12-28T00:18:47.465Z,4.90
2022-12-28T00:21:13.899Z,4.90
2022-12-28T00:23:40.349Z,4.90
2022-12-28T00:26:08.681Z,4.91
2022-12-28T00:28:35.680Z,4.93
2022-12-28T00:31:02.987Z,4.94
2022-12-28T00:33:29.807Z,4.94
2022-12-28T00:35:58.147Z,4.95
2022-12-28T00:38:24.918Z,4.97
2022-12-28T00:40:51.633Z,4.98
2022-12-28T00:43:18.587Z,4.98
2022-12-28T00:45:46.644Z,5.00
2022-12-28T00:48:14.187Z,5.03
2022-12-28T00:50:41.550Z,5.03
2022-12-28T00:53:08.335Z,5.06
2022-12-28T00:55:35.982Z,5.07
2022-12-28T00:58:03.449Z,5.11
2022-12-28T01:00:30.119Z,5.14
2022-12-28T01:02:57.238Z,5.15
2022-12-28T01:05:23.699Z,5.18
2022-12-28T01:07:50.484Z,5.21
2022-12-28T01:10:17.765Z,5.23
2022-12-28T01:12:44.217Z,5.25
2022-12-28T01:15:12.613Z,5.28
2022-12-28T01:17:39.744Z,5.31
2022-12-28T01:20:07.639Z,5.32
2022-12-28T01:22:34.058Z,5.40
2022-12-28T01:25:00.550Z,5.43
2022-12-28T01:27:26.907Z,5.44
2022-12-28T01:29:53.331Z,5.46
2022-12-28T01:32:19.762Z,5.47
2022-12-28T01:34:46.254Z,5.50
2022-12-28T01:37:12.698Z,5.50
2022-12-28T01:39:39.197Z,5.50
2022-12-28T01:42:05.762Z,5.48
2022-12-28T01:44:42.652Z,5.48
2022-12-28T01:47:15.780Z,5.49
2022-12-28T01:49:48.639Z,5.50
2022-12-28T01:52:35.373Z,5.52
2022-12-28T01:55:04.825Z,5.56
2022-12-28T01:57:34.036Z,5.55
2022-12-28T02:00:11.044Z,5.58
2022-12-28T02:02:38.870Z,5.60
2022-12-28T02:05:06.488Z,5.58
2022-12-28T02:07:43.576Z,5.58
2022-12-28T02:10:43.777Z,5.56
2022-12-28T02:12:58.890Z,5.56
2022-12-28T02:15:25.414Z,5.53
2022-12-28T02:17:51.883Z,5.53
2022-12-28T02:20:19.168Z,5.51
2022-12-28T02:22:58.492Z,5.50
2022-12-28T02:25:46.649Z,5.52
2022-12-28T02:28:44.090Z,5.56
2022-12-28T02:31:41.899Z,5.58
2022-12-28T02:34:11.338Z,5.58
2022-12-28T02:36:46.109Z,5.61
2022-12-28T02:39:22.065Z,5.61
2022-12-28T02:41:50.267Z,5.63
2022-12-28T02:44:36.762Z,5.66
2022-12-28T02:47:30.279Z,5.70
2022-12-28T02:50:08.712Z,5.76
2022-12-28T02:52:50.754Z,5.81
2022-12-28T02:55:57.122Z,5.85
2022-12-28T02:58:42.008Z,5.85
2022-12-28T03:01:31.550Z,5.86
2022-12-28T03:04:16.747Z,5.87
2022-12-28T03:07:23.281Z,5.89
2022-12-28T03:10:01.599Z,5.91
2022-12-28T03:12:40.729Z,5.94
2022-12-28T03:15:25.889Z,5.93
2022-12-28T03:18:21.579Z,5.91
2022-12-28T03:21:08.967Z,5.91
2022-12-28T03:23:58.908Z,5.92
2022-12-28T03:26:46.278Z,5.94
2022-12-28T03:29:34.869Z,5.94
2022-12-28T03:32:01.375Z,6.00
2022-12-28T03:34:27.926Z,6.02
2022-12-28T03:36:59.236Z,6.02
2022-12-28T03:39:34.498Z,6.01
2022-12-28T03:42:39.591Z,6.05
2022-12-28T03:45:45.384Z,6.06
2022-12-28T03:48:16.156Z,6.07
2022-12-28T03:50:45.600Z,6.12
2022-12-28T03:53:12.074Z,6.12
2022-12-28T03:55:39.815Z,6.14
2022-12-28T03:58:07.170Z,6.15
2022-12-28T04:00:33.838Z,6.15
2022-12-28T04:03:00.254Z,6.16
2022-12-28T04:05:26.755Z,6.17
2022-12-28T04:07:53.383Z,6.20
2022-12-28T04:10:19.833Z,6.23
2022-12-28T04:12:46.313Z,6.25
2022-12-28T04:15:12.753Z,6.29
2022-12-28T04:17:39.152Z,6.33
2022-12-28T04:20:06.523Z,6.32
2022-12-28T04:22:32.958Z,6.34
2022-12-28T04:24:59.450Z,6.37
2022-12-28T04:27:25.865Z,6.39
2022-12-28T04:29:52.240Z,6.41
2022-12-28T04:32:18.693Z,6.43
2022-12-28T04:34:48.626Z,6.46
2022-12-28T04:37:15.281Z,6.49
2022-12-28T04:39:56.087Z,6.51
2022-12-28T04:42:24.997Z,6.54
2022-12-28T04:44:51.443Z,6.56
2022-12-28T04:47:17.829Z,6.59
2022-12-28T04:49:44.174Z,6.62
2022-12-28T04:52:10.685Z,6.66
2022-12-28T04:54:37.090Z,6.66
2022-12-28T04:57:03.660Z,6.67
2022-12-28T04:59:29.999Z,6.71
2022-12-28T05:01:56.518Z,6.75
2022-12-28T05:04:22.942Z,6.77
2022-12-28T05:06:49.412Z,6.77
2022-12-28T05:09:15.870Z,6.78
2022-12-28T05:11:42.241Z,6.79
2022-12-28T05:14:08.667Z,6.81
2022-12-28T05:16:35.051Z,6.82
2022-12-28T05:19:01.558Z,6.85
2022-12-28T05:21:28.493Z,6.88
2022-12-28T05:23:55.458Z,6.92
2022-12-28T05:26:24.565Z,6.95
2022-12-28T05:28:51.121Z,6.95
2022-12-28T05:31:20.637Z,6.97
2022-12-28T05:33:47.876Z,7.03
2022-12-28T05:36:20.107Z,7.05
2022-12-28T05:38:47.340Z,7.07
2022-12-28T05:41:16.414Z,7.09
2022-12-28T05:43:43.843Z,7.10
2022-12-28T05:46:15.800Z,7.14
2022-12-28T05:48:42.941Z,7.19
2022-12-28T05:51:11.975Z,7.19
2022-12-28T05:53:38.885Z,7.20
2022-12-28T05:56:15.562Z,7.22
2022-12-28T05:58:43.650Z,7.22
2022-12-28T06:01:13.782Z,7.23
2022-12-28T06:03:40.920Z,7.25
2022-12-28T06:06:13.241Z,7.27
2022-12-28T06:08:40.309Z,7.27
2022-12-28T06:11:10.409Z,7.30
2022-12-28T06:13:37.839Z,7.32
2022-12-28T06:16:09.521Z,7.33
2022-12-28T06:18:36.381Z,7.34
2022-12-28T06:21:08.211Z,7.38
2022-12-28T06:23:34.909Z,7.40
2022-12-28T06:26:02.699Z,7.42
2022-12-28T06:28:29.427Z,7.45
2022-12-28T06:31:07.641Z,7.49
2022-12-28T06:33:34.863Z,7.54
2022-12-28T06:36:02.049Z,7.55
2022-12-28T06:38:32.412Z,7.57
2022-12-28T06:41:19.370Z,7.62
2022-12-28T06:43:46.687Z,7.67
2022-12-28T06:46:14.448Z,7.70
2022-12-28T06:48:41.729Z,7.72
2022-12-28T06:51:12.892Z,7.71
2022-12-28T06:53:39.913Z,7.73
2022-12-28T06:56:28.317Z,7.74
2022-12-28T06:59:02.143Z,7.72
2022-12-28T07:01:35.208Z,7.75
2022-12-28T07:04:03.255Z,7.74
2022-12-28T07:06:30.615Z,7.75
2022-12-28T07:09:06.612Z,7.75
2022-12-28T07:11:33.906Z,7.74
2022-12-28T07:14:00.352Z,7.73
2022-12-28T07:18:55.450Z,7.77
2022-12-28T07:21:27.577Z,7.80
2022-12-28T07:23:55.270Z,7.81
2022-12-28T07:26:25.369Z,7.85
2022-12-28T07:28:54.102Z,7.88
2022-12-28T07:31:23.355Z,7.92
2022-12-28T07:33:51.585Z,7.93
2022-12-28T07:36:19.806Z,7.95
2022-12-28T07:38:46.581Z,7.96
2022-12-28T07:41:25.075Z,7.94
2022-12-28T07:43:51.872Z,7.98
2022-12-28T07:46:30.228Z,8.00
2022-12-28T07:48:57.239Z,8.04
2022-12-28T07:51:29.840Z,8.10
2022-12-28T07:53:57.788Z,8.12
2022-12-28T07:56:25.821Z,8.12
2022-12-28T07:58:55.443Z,8.13
2022-12-28T08:01:24.703Z,8.15
2022-12-28T08:03:55.818Z,8.18
2022-12-28T08:06:23.384Z,8.17
2022-12-28T08:08:52.523Z,8.19
2022-12-28T08:11:24.664Z,8.18
2022-12-28T08:13:53.444Z,8.16
2022-12-28T08:16:21.823Z,8.19
2022-12-28T08:18:49.245Z,8.20
2022-12-28T08:21:26.499Z,8.24
2022-12-28T08:23:53.086Z,8.24
2022-12-28T08:26:23.274Z,8.25
2022-12-28T08:28:52.133Z,8.25
2022-12-28T08:31:24.323Z,8.24
2022-12-28T08:33:51.289Z,8.22
2022-12-28T08:36:17.701Z,8.18
2022-12-28T08:38:45.119Z,8.19
2022-12-28T08:41:17.520Z,8.20
2022-12-28T08:43:44.933Z,8.18
2022-12-28T08:46:12.689Z,8.18
2022-12-28T08:48:39.238Z,8.16
2022-12-28T08:51:09.865Z,8.18
2022-12-28T08:53:37.540Z,8.21
2022-12-28T08:56:13.210Z,8.26
2022-12-28T08:58:41.880Z,8.28
2022-12-28T09:01:18.643Z,8.28
2022-12-28T09:03:46.668Z,8.27
2022-12-28T09:06:16.557Z,8.25
2022-12-28T09:08:56.834Z,8.28
2022-12-28T09:11:29.900Z,8.28
2022-12-28T09:13:56.406Z,8.31
2022-12-28T09:16:27.144Z,8.34
2022-12-28T09:18:55.594Z,8.36
2022-12-28T09:21:23.748Z,8.37
2022-12-28T09:23:51.046Z,8.38
2022-12-28T09:26:24.031Z,8.33
2022-12-28T09:28:55.301Z,8.29
2022-12-28T09:31:24.112Z,8.23
2022-12-28T09:36:48.848Z,8.12
2022-12-28T09:39:18.940Z,8.08
2022-12-28T09:41:48.615Z,8.07
2022-12-28T09:44:30.311Z,8.06
2022-12-28T09:47:17.295Z,8.05
2022-12-28T09:49:54.950Z,8.05
2022-12-28T09:52:24.527Z,8.03
2022-12-28T09:54:51.230Z,8.01
2022-12-28T09:57:19.525Z,8.00
2022-12-28T09:59:48.056Z,8.00
2022-12-28T10:02:34.983Z,7.98
2022-12-28T10:05:01.798Z,7.97
2022-12-28T10:07:28.202Z,7.96
2022-12-28T10:09:54.757Z,7.94
2022-12-28T10:12:24.387Z,7.96
2022-12-28T10:14:53.190Z,7.94
2022-12-28T10:17:27.103Z,7.93
2022-12-28T10:19:57.838Z,7.94
2022-12-28T10:22:27.341Z,7.94
2022-12-28T10:24:54.126Z,7.94
2022-12-28T10:27:29.518Z,7.95
2022-12-28T10:29:59.150Z,7.95
2022-12-28T10:32:25.551Z,7.94
2022-12-28T10:34:59.489Z,7.98
2022-12-28T10:37:30.454Z,8.00
2022-12-28T10:40:00.271Z,8.02
2022-12-28T10:42:34.765Z,8.03
2022-12-28T10:45:17.936Z,8.02
2022-12-28T10:47:48.501Z,8.02
2022-12-28T10:50:41.705Z,8.00
2022-12-28T10:53:23.013Z,7.98
2022-12-28T10:55:49.395Z,8.00
2022-12-28T10:58:32.854Z,8.00
2022-12-28T11:01:28.037Z,8.01
2022-12-28T11:03:57.274Z,8.00
2022-12-28T11:07:00.772Z,8.00
2022-12-28T11:09:31.940Z,8.02
2022-12-28T11:12:17.260Z,8.01
2022-12-28T11:14:43.809Z,8.02
2022-12-28T11:17:18.540Z,8.03
2022-12-28T11:19:47.006Z,8.04
2022-12-28T11:22:17.353Z,8.03
2022-12-28T11:24:43.814Z,8.04
2022-12-28T11:27:15.353Z,8.05
2022-12-28T11:29:45.961Z,8.06
2022-12-28T11:32:21.480Z,8.06
2022-12-28T11:34:48.764Z,8.06
2022-12-28T11:37:15.738Z,8.07
2022-12-28T11:39:46.976Z,8.07
2022-12-28T11:42:39.443Z,8.08
2022-12-28T11:45:13.912Z,8.10
2022-12-28T11:47:40.431Z,8.11
2022-12-28T11:50:36.638Z,8.12
2022-12-28T11:53:09.114Z,8.12
2022-12-28T11:55:51.008Z,8.13
2022-12-28T11:58:54.638Z,8.12
2022-12-28T12:01:27.044Z,8.14
2022-12-28T12:03:56.633Z,8.15
2022-12-28T12:06:52.627Z,8.21
2022-12-28T12:09:21.845Z,8.23
2022-12-28T12:11:53.930Z,8.20
2022-12-28T12:14:32.543Z,8.22
2022-12-28T12:17:31.080Z,8.25
2022-12-28T12:20:02.324Z,8.22
2022-12-28T12:22:34.307Z,8.23
2022-12-28T12:25:07.955Z,8.20
2022-12-28T12:27:45.032Z,8.20
2022-12-28T12:30:17.717Z,8.19
2022-12-28T12:32:48.863Z,8.18
2022-12-28T12:35:18.920Z,8.18
2022-12-28T12:38:03.349Z,8.20
2022-12-28T12:41:02.099Z,8.19
2022-12-28T12:44:08.371Z,8.20
2022-12-28T12:47:05.428Z,8.20
2022-12-28T12:49:38.503Z,8.20
2022-12-28T12:52:40.546Z,8.18
2022-12-28T12:55:40.181Z,8.18
2022-12-28T12:58:46.589Z,8.19
2022-12-28T13:01:58.217Z,8.19
2022-12-28T13:04:29.496Z,8.19
2022-12-28T13:06:59.190Z,8.17
2022-12-28T13:09:28.763Z,8.17
2022-12-28T13:11:55.412Z,8.17
2022-12-28T13:14:23.999Z,8.18
2022-12-28T13:16:53.275Z,8.19
2022-12-28T13:19:23.367Z,8.22
2022-12-28T13:21:50.847Z,8.26
2022-12-28T13:24:27.745Z,8.29
2022-12-28T13:26:57.007Z,8.25
2022-12-28T13:29:31.490Z,8.24
2022-12-28T13:31:58.138Z,8.26
2022-12-28T13:34:36.028Z,8.24
2022-12-28T13:37:13.942Z,8.24
2022-12-28T13:39:42.445Z,8.25
2022-12-28T13:42:18.587Z,8.25
2022-12-28T13:44:58.144Z,8.27
2022-12-28T13:47:37.398Z,8.30
2022-12-28T13:50:08.189Z,8.31
2022-12-28T13:52:40.908Z,8.29
2022-12-28T13:55:13.124Z,8.31
2022-12-28T13:57:49.133Z,8.34
2022-12-28T14:00:19.677Z,8.38
2022-12-28T14:02:48.172Z,8.37
2022-12-28T14:05:20.303Z,8.37
2022-12-28T14:07:49.587Z,8.39
2022-12-28T14:10:16.685Z,8.41
2022-12-28T14:12:44.838Z,8.46
2022-12-28T14:15:12.366Z,8.50
2022-12-28T14:17:40.058Z,8.51
2022-12-28T14:20:07.604Z,8.52
2022-12-28T14:22:37.590Z,8.53
2022-12-28T14:25:13.348Z,8.54
2022-12-28T14:27:57.313Z,8.53
2022-12-28T14:30:28.227Z,8.55
2022-12-28T14:32:55.749Z,8.58
2022-12-28T14:35:25.992Z,8.56
2022-12-28T14:37:55.048Z,8.56
2022-12-28T14:40:30.420Z,8.56
2022-12-28T14:42:57.836Z,8.58
2022-12-28T14:46:05.401Z,8.59
2022-12-28T14:48:40.106Z,8.57
2022-12-28T14:51:17.673Z,8.56
2022-12-28T14:53:44.945Z,8.55
2022-12-28T14:56:15.143Z,8.56
2022-12-28T14:58:51.132Z,8.55
2022-12-28T15:01:19.251Z,8.56
2022-12-28T15:03:59.065Z,8.54
2022-12-28T15:06:32.174Z,8.52
2022-12-28T15:08:59.781Z,8.53
2022-12-28T15:11:28.752Z,8.54
2022-12-28T15:13:56.931Z,8.51
2022-12-28T15:16:23.752Z,8.54
2022-12-28T15:18:50.603Z,8.57
2022-12-28T15:21:19.581Z,8.54
2022-12-28T15:23:53.572Z,8.54
2022-12-28T15:26:20.932Z,8.52
2022-12-28T15:28:47.450Z,8.56
2022-12-28T15:31:17.937Z,8.51
2022-12-28T15:33:45.052Z,8.47
2022-12-28T15:36:17.722Z,8.44
2022-12-28T15:38:45.483Z,8.44
2022-12-28T15:41:30.695Z,8.46
2022-12-28T15:43:57.339Z,8.46
2022-12-28T15:46:23.920Z,8.41
2022-12-28T15:48:50.477Z,8.41
2022-12-28T15:51:17.122Z,8.42
2022-12-28T15:53:43.747Z,8.46
2022-12-28T15:56:37.781Z,8.44
2022-12-28T15:59:07.753Z,8.44
2022-12-28T16:01:34.426Z,8.41
2022-12-28T16:04:02.484Z,8.37
2022-12-28T16:06:31.165Z,8.37
2022-12-28T16:09:00.122Z,8.34
2022-12-28T16:11:31.248Z,8.31
2022-12-28T16:13:59.797Z,8.31
2022-12-28T16:16:28.782Z,8.29
2022-12-28T16:18:57.359Z,8.29
2022-12-28T16:21:25.521Z,8.27
2022-12-28T16:23:52.539Z,8.27
2022-12-28T16:26:19.462Z,8.25
2022-12-28T16:28:46.073Z,8.22
2022-12-28T16:31:25.648Z,8.20
2022-12-28T16:33:53.998Z,8.16
2022-12-28T16:36:21.571Z,8.15
2022-12-28T16:38:48.183Z,8.13
2022-12-28T16:41:14.820Z,8.11
2022-12-28T16:43:41.197Z,8.10
2022-12-28T16:46:08.860Z,8.05
2022-12-28T16:48:36.675Z,8.04
2022-12-28T16:51:03.670Z,8.02
2022-12-28T16:53:31.679Z,7.97
2022-12-28T16:56:00.659Z,7.98
2022-12-28T16:58:28.690Z,7.96
2022-12-28T17:00:55.292Z,7.95
2022-12-28T17:03:21.784Z,7.94
2022-12-28T17:05:50.159Z,7.93
2022-12-28T17:08:17.222Z,7.90
2022-12-28T17:10:43.965Z,7.89
2022-12-28T17:13:10.998Z,7.87
2022-12-28T17:15:40.926Z,7.87
2022-12-28T17:18:07.394Z,7.86
2022-12-28T17:20:38.188Z,7.85
2022-12-28T17:23:05.327Z,7.86
2022-12-28T17:25:33.001Z,7.86
2022-12-28T17:27:59.809Z,7.85
2022-12-28T17:30:26.944Z,7.86
2022-12-28T17:32:53.486Z,7.85
2022-12-28T17:35:19.974Z,7.84
2022-12-28T17:37:46.393Z,7.85
2022-12-28T17:40:12.845Z,7.88
2022-12-28T17:42:39.225Z,7.89
2022-12-28T17:45:11.134Z,7.87
2022-12-28T17:47:38.162Z,7.88
2022-12-28T17:50:05.070Z,7.86
2022-12-28T17:52:31.594Z,7.87
2022-12-28T17:54:57.985Z,7.87
2022-12-28T17:57:24.382Z,7.87
2022-12-28T17:59:50.751Z,7.85
2022-12-28T18:02:17.401Z,7.87
2022-12-28T18:04:43.875Z,7.87
2022-12-28T18:07:10.295Z,7.85
2022-12-28T18:09:36.738Z,7.84
2022-12-28T18:12:03.118Z,7.82
2022-12-28T18:14:29.673Z,7.81
2022-12-28T18:16:56.179Z,7.81
2022-12-28T18:19:22.647Z,7.81
2022-12-28T18:21:49.145Z,7.81
2022-12-28T18:24:17.444Z,7.82
2022-12-28T18:26:43.927Z,7.79
2022-12-28T18:29:10.269Z,7.79
2022-12-28T18:31:36.671Z,7.79
2022-12-28T18:34:03.131Z,7.80
2022-12-28T18:36:29.499Z,7.78
2022-12-28T18:38:55.979Z,7.77
2022-12-28T18:41:22.478Z,7.77
2022-12-28T18:43:51.261Z,7.77
2022-12-28T18:46:17.979Z,7.77
2022-12-28T18:48:44.462Z,7.78
2022-12-28T18:51:13.720Z,7.79
2022-12-28T18:53:40.545Z,7.81
2022-12-28T18:56:11.963Z,7.81
2022-12-28T18:58:40.061Z,7.83
2022-12-28T19:01:25.965Z,7.86
2022-12-28T19:03:59.246Z,7.87
2022-12-28T19:06:26.150Z,7.86
2022-12-28T19:08:52.576Z,7.88
2022-12-28T19:11:18.940Z,7.87
2022-12-28T19:13:45.358Z,7.90
2022-12-28T19:16:16.080Z,7.90
2022-12-28T19:18:42.902Z,7.94
2022-12-28T19:21:17.148Z,7.99
2022-12-28T19:23:44.368Z,8.02
2022-12-28T19:26:11.727Z,8.03
2022-12-28T19:28:38.092Z,8.04
2022-12-28T19:31:05.149Z,8.04
2022-12-28T19:33:31.738Z,8.06
2022-12-28T19:35:58.150Z,8.08
2022-12-28T19:38:24.553Z,8.13
2022-12-28T19:40:50.880Z,8.16
2022-12-28T19:43:17.259Z,8.19
2022-12-28T19:45:44.237Z,8.22
2022-12-28T19:48:10.594Z,8.23
2022-12-28T19:50:37.758Z,8.26
2022-12-28T19:53:04.329Z,8.27
2022-12-28T19:55:30.962Z,8.29
2022-12-28T19:57:57.317Z,8.33
2022-12-28T20:00:23.653Z,8.36
2022-12-28T20:02:50.184Z,8.42
2022-12-28T20:05:16.966Z,8.43
2022-12-28T20:07:43.361Z,8.44
2022-12-28T20:10:09.703Z,8.50
2022-12-28T20:12:36.092Z,8.53
2022-12-28T20:15:02.430Z,8.54
2022-12-28T20:17:29.689Z,8.58
2022-12-28T20:19:56.007Z,8.60
2022-12-28T20:22:22.427Z,8.62
2022-12-28T20:24:48.794Z,8.65
2022-12-28T20:27:15.181Z,8.69
2022-12-28T20:29:41.591Z,8.71
2022-12-28T20:32:08.011Z,8.72
2022-12-28T20:34:34.933Z,8.73
2022-12-28T20:37:01.340Z,8.76
2022-12-28T20:39:27.775Z,8.78
2022-12-28T20:42:23.425Z,8.82
2022-12-28T20:44:49.756Z,8.88
2022-12-28T20:47:17.446Z,8.89
2022-12-28T20:49:43.827Z,8.94
2022-12-28T20:52:10.194Z,8.95
2022-12-28T20:54:36.561Z,9.01
2022-12-28T20:57:03.117Z,9.06
2022-12-28T20:59:29.510Z,9.09
2022-12-28T21:01:56.078Z,9.13
2022-12-28T21:04:24.410Z,9.16
2022-12-28T21:06:51.350Z,9.15
2022-12-28T21:09:17.904Z,9.13
2022-12-28T21:11:44.560Z,9.15
2022-12-28T21:14:10.897Z,9.20
2022-12-28T21:16:37.542Z,9.20
2022-12-28T21:19:04.066Z,9.26
2022-12-28T21:21:30.392Z,9.30
2022-12-28T21:23:56.800Z,9.26
2022-12-28T21:26:23.223Z,9.30
2022-12-28T21:28:49.968Z,9.31
2022-12-28T21:31:16.407Z,9.38
2022-12-28T21:33:43.276Z,9.39
2022-12-28T21:36:18.301Z,9.37
2022-12-28T21:38:46.479Z,9.43
2022-12-28T21:41:16.552Z,9.43
2022-12-28T21:43:42.903Z,9.46
2022-12-28T21:46:13.876Z,9.44
2022-12-28T21:48:41.336Z,9.47
2022-12-28T21:51:30.554Z,9.48
2022-12-28T21:54:00.772Z,9.48
2022-12-28T21:56:28.386Z,9.51
2022-12-28T21:58:55.710Z,9.56
2022-12-28T22:01:40.497Z,9.55
2022-12-28T22:04:25.809Z,9.49
2022-12-28T22:06:52.198Z,9.45
2022-12-28T22:09:36.920Z,9.44
2022-12-28T22:12:21.600Z,9.42
2022-12-28T22:14:47.978Z,9.41
2022-12-28T22:17:14.813Z,9.39
2022-12-28T22:19:41.462Z,9.39
2022-12-28T22:22:08.107Z,9.38
2022-12-28T22:24:34.519Z,9.38
2022-12-28T22:27:00.859Z,9.36
2022-12-28T22:29:27.260Z,9.41
2022-12-28T22:31:53.697Z,9.41
2022-12-28T22:34:20.236Z,9.45
2022-12-28T22:36:46.629Z,9.46
2022-12-28T22:39:13.027Z,9.49
2022-12-28T22:41:39.510Z,9.54
2022-12-28T22:44:05.946Z,9.57
2022-12-28T22:46:32.434Z,9.59
2022-12-28T22:48:58.800Z,9.59
2022-12-28T22:51:25.117Z,9.60
2022-12-28T22:53:51.491Z,9.62
2022-12-28T22:56:20.773Z,9.70
2022-12-28T22:58:48.024Z,9.72
2022-12-28T23:01:17.656Z,9.73
2022-12-28T23:03:46.510Z,9.80
2022-12-28T23:06:15.096Z,9.79
2022-12-28T23:08:41.680Z,9.74
2022-12-28T23:11:29.976Z,9.75
2022-12-28T23:14:17.931Z,9.73
2022-12-28T23:16:44.614Z,9.78
2022-12-28T23:19:30.778Z,9.76
2022-12-28T23:22:16.083Z,9.76
2022-12-28T23:25:01.495Z,9.78
2022-12-28T23:27:38.033Z,9.76
2022-12-28T23:30:07.147Z,9.77
2022-12-28T23:32:33.647Z,9.78
2022-12-28T23:35:00.204Z,9.77
2022-12-28T23:37:26.667Z,9.80
2022-12-28T23:39:53.069Z,9.81
2022-12-28T23:42:19.406Z,9.84
2022-12-28T23:44:47.988Z,9.92
2022-12-28T23:47:16.428Z,9.93
2022-12-28T23:49:42.923Z,9.92
2022-12-28T23:52:09.403Z,9.91
2022-12-28T23:54:35.772Z,9.94
2022-12-28T23:57:02.226Z,9.99
2022-12-28T23:59:28.606Z,10.02
